createdAt,value
2018-01-26T00:00:02.516Z,7.40
2018-01-26T00:02:30.026Z,6.20
2018-01-26T00:04:57.581Z,6.40
2018-01-26T00:07:25.102Z,7.20
2018-01-26T00:09:53.421Z,7.50
2018-01-26T00:12:20.932Z,7.13
2018-01-26T00:14:48.541Z,7.50
2018-01-26T00:17:16.056Z,7.00
2018-01-26T00:19:43.671Z,7.37
2018-01-26T00:22:11.182Z,6.87
2018-01-26T00:24:38.714Z,6.33
2018-01-26T00:27:06.226Z,8.17
2018-01-26T00:29:33.755Z,7.83
2018-01-26T00:32:01.268Z,7.53
2018-01-26T00:34:28.828Z,8.63
2018-01-26T00:36:56.337Z,7.63
2018-01-26T00:39:23.861Z,6.30
2018-01-26T00:41:51.368Z,5.93
2018-01-26T00:44:18.894Z,7.23
2018-01-26T00:46:46.429Z,9.17
2018-01-26T00:49:13.973Z,11.13
2018-01-26T00:51:41.482Z,6.33
2018-01-26T00:54:09.017Z,5.97
2018-01-26T00:56:36.537Z,5.90
2018-01-26T00:59:04.837Z,5.20
2018-01-26T01:01:32.345Z,5.17
2018-01-26T01:06:33.796Z,5.57
2018-01-26T01:09:01.325Z,8.27
2018-01-26T01:11:28.907Z,10.03
2018-01-26T01:13:56.465Z,9.73
2018-01-26T01:16:24.032Z,11.53
2018-01-26T01:18:51.569Z,9.47
2018-01-26T01:21:19.849Z,11.70
2018-01-26T01:23:48.152Z,9.53
2018-01-26T01:26:15.664Z,11.87
2018-01-26T01:28:43.197Z,9.60
2018-01-26T01:31:10.709Z,9.30
2018-01-26T01:33:38.244Z,8.47
2018-01-26T01:36:05.755Z,10.20
2018-01-26T01:38:33.313Z,8.93
2018-01-26T01:41:00.831Z,8.50
2018-01-26T01:43:29.145Z,10.53
2018-01-26T01:45:56.657Z,9.33
2018-01-26T01:48:24.184Z,8.63
2018-01-26T01:50:51.701Z,10.77
2018-01-26T01:53:20.000Z,10.83
2018-01-26T01:55:47.508Z,9.60
2018-01-26T01:58:15.042Z,9.17
2018-01-26T02:00:42.555Z,8.83
2018-01-26T02:03:10.833Z,10.30
2018-01-26T02:05:39.134Z,6.70
2018-01-26T02:08:06.652Z,8.97
2018-01-26T02:10:34.945Z,7.00
2018-01-26T02:13:03.224Z,9.30
2018-01-26T02:15:31.593Z,8.00
2018-01-26T02:17:59.073Z,7.67
2018-01-26T02:20:27.366Z,6.47
2018-01-26T02:22:54.884Z,7.83
2018-01-26T02:25:40.444Z,8.40
2018-01-26T02:28:07.961Z,25.17
2018-01-26T02:30:35.502Z,13.13
2018-01-26T02:33:03.789Z,17.13
2018-01-26T02:35:32.098Z,15.23
2018-01-26T02:37:59.608Z,14.23
2018-01-26T02:40:27.137Z,17.83
2018-01-26T02:42:54.657Z,23.97
2018-01-26T02:45:22.251Z,10.43
2018-01-26T02:47:49.762Z,10.50
2018-01-26T02:50:18.080Z,7.40
2018-01-26T02:52:45.590Z,9.93
2018-01-26T02:55:13.119Z,9.07
2018-01-26T02:57:40.647Z,8.40
2018-01-26T03:00:08.187Z,10.60
2018-01-26T03:02:36.506Z,16.87
2018-01-26T03:05:04.045Z,10.50
2018-01-26T03:07:31.565Z,7.10
2018-01-26T03:09:59.097Z,12.20
2018-01-26T03:12:26.610Z,12.60
2018-01-26T03:14:54.905Z,9.50
2018-01-26T03:17:22.416Z,9.40
2018-01-26T03:19:49.948Z,8.37
2018-01-26T03:22:17.466Z,11.43
2018-01-26T03:24:45.767Z,9.40
2018-01-26T03:27:13.279Z,8.60
2018-01-26T03:29:40.812Z,9.97
2018-01-26T03:32:08.320Z,7.87
2018-01-26T03:34:36.617Z,8.00
2018-01-26T03:37:04.143Z,12.23
2018-01-26T03:39:31.674Z,9.77
2018-01-26T03:41:59.189Z,10.60
2018-01-26T03:44:26.729Z,8.53
2018-01-26T03:46:54.236Z,10.23
2018-01-26T03:49:21.764Z,10.70
2018-01-26T03:51:50.045Z,13.90
2018-01-26T03:54:18.348Z,11.20
2018-01-26T03:56:45.860Z,10.50
2018-01-26T03:59:13.400Z,12.43
2018-01-26T04:01:40.932Z,18.40
2018-01-26T04:04:08.470Z,12.50
2018-01-26T04:06:35.982Z,9.80
2018-01-26T04:09:03.513Z,11.33
2018-01-26T04:11:31.034Z,10.20
2018-01-26T04:14:00.461Z,9.70
2018-01-26T04:16:27.982Z,8.23
2018-01-26T04:18:55.493Z,9.80
2018-01-26T04:21:23.031Z,8.07
2018-01-26T04:23:50.613Z,6.63
2018-01-26T04:26:18.186Z,13.40
2018-01-26T04:28:45.700Z,9.80
2018-01-26T04:31:13.997Z,8.77
2018-01-26T04:33:41.581Z,13.00
2018-01-26T04:36:09.113Z,8.87
2018-01-26T04:38:37.394Z,9.60
2018-01-26T04:41:05.695Z,7.97
2018-01-26T04:43:33.213Z,6.47
2018-01-26T04:46:00.741Z,6.03
2018-01-26T04:48:28.249Z,7.03
2018-01-26T04:50:56.555Z,9.53
2018-01-26T04:53:24.061Z,6.60
2018-01-26T04:55:51.594Z,7.43
2018-01-26T04:58:19.139Z,7.60
2018-01-26T05:00:46.693Z,6.30
2018-01-26T05:03:14.251Z,7.10
2018-01-26T05:05:41.791Z,6.93
2018-01-26T05:08:09.377Z,6.27
2018-01-26T05:10:36.917Z,8.47
2018-01-26T05:13:04.429Z,8.33
2018-01-26T05:15:31.960Z,7.03
2018-01-26T05:17:59.478Z,9.80
2018-01-26T05:20:27.799Z,7.50
2018-01-26T05:22:55.308Z,6.67
2018-01-26T05:25:22.837Z,6.13
2018-01-26T05:27:50.358Z,4.43
2018-01-26T05:30:17.938Z,5.77
2018-01-26T05:32:45.449Z,6.40
2018-01-26T05:35:12.966Z,6.83
2018-01-26T05:37:40.492Z,7.87
2018-01-26T05:40:08.008Z,7.67
2018-01-26T05:42:35.542Z,6.73
2018-01-26T05:45:03.054Z,5.30
2018-01-26T05:47:31.377Z,4.43
2018-01-26T05:49:58.886Z,8.97
2018-01-26T05:52:26.417Z,7.27
2018-01-26T05:54:53.933Z,7.20
2018-01-26T05:57:21.470Z,6.23
2018-01-26T05:59:49.795Z,8.20
2018-01-26T06:02:17.332Z,5.37
2018-01-26T06:04:44.850Z,8.70
2018-01-26T06:07:12.358Z,9.17
2018-01-26T06:09:39.896Z,7.97
2018-01-26T06:12:08.183Z,11.60
2018-01-26T06:14:36.474Z,9.20
2018-01-26T06:17:03.993Z,8.87
2018-01-26T06:19:31.525Z,7.50
2018-01-26T06:21:59.038Z,6.70
2018-01-26T06:24:27.337Z,7.00
2018-01-26T06:26:54.845Z,8.70
2018-01-26T06:29:22.377Z,6.60
2018-01-26T06:31:49.888Z,11.83
2018-01-26T06:34:18.185Z,6.70
2018-01-26T06:36:46.462Z,9.03
2018-01-26T06:39:15.740Z,9.00
2018-01-26T06:41:43.290Z,7.30
2018-01-26T06:44:10.824Z,10.53
2018-01-26T06:46:38.341Z,14.03
2018-01-26T06:49:06.652Z,8.47
2018-01-26T06:51:34.161Z,10.60
2018-01-26T06:54:01.778Z,6.77
2018-01-26T06:56:29.452Z,7.07
2018-01-26T06:58:56.967Z,5.77
2018-01-26T07:01:25.265Z,8.17
2018-01-26T07:03:52.778Z,9.80
2018-01-26T07:06:20.318Z,9.47
2018-01-26T07:08:47.836Z,13.93
2018-01-26T07:11:16.143Z,16.17
2018-01-26T07:13:43.662Z,12.77
2018-01-26T07:16:11.966Z,20.67
2018-01-26T07:18:39.540Z,26.80
2018-01-26T07:21:07.103Z,36.23
2018-01-26T07:23:34.625Z,29.13
2018-01-26T07:26:02.925Z,26.20
2018-01-26T07:28:30.446Z,23.07
2018-01-26T07:30:57.985Z,14.80
2018-01-26T07:33:25.514Z,15.60
2018-01-26T07:35:53.083Z,14.53
2018-01-26T07:38:20.598Z,12.47
2018-01-26T07:40:48.213Z,10.30
2018-01-26T07:43:15.728Z,9.90
2018-01-26T07:45:44.821Z,8.80
2018-01-26T07:48:12.632Z,8.73
2018-01-26T07:50:40.161Z,7.60
2018-01-26T07:53:08.467Z,5.77
2018-01-26T07:55:35.979Z,5.60
2018-01-26T07:58:03.509Z,6.47
2018-01-26T08:00:31.020Z,5.90
2018-01-26T08:02:59.318Z,4.80
2018-01-26T08:05:26.828Z,4.50
2018-01-26T08:07:54.366Z,5.50
2018-01-26T08:10:21.878Z,6.37
2018-01-26T08:12:50.168Z,7.03
2018-01-26T08:15:18.451Z,4.87
2018-01-26T08:17:46.011Z,5.80
2018-01-26T08:20:14.375Z,3.40
2018-01-26T08:22:41.956Z,4.47
2018-01-26T08:25:10.253Z,3.63
2018-01-26T08:27:37.774Z,4.10
2018-01-26T08:30:05.304Z,4.67
2018-01-26T08:32:32.826Z,3.40
2018-01-26T08:35:00.364Z,2.80
2018-01-26T08:37:28.637Z,4.43
2018-01-26T08:39:56.937Z,16.27
2018-01-26T08:42:25.226Z,32.67
2018-01-26T08:44:52.778Z,17.57
2018-01-26T08:47:21.058Z,10.03
2018-01-26T08:49:49.341Z,11.63
2018-01-26T08:52:16.877Z,12.87
2018-01-26T08:54:44.389Z,9.17
2018-01-26T08:57:11.943Z,7.87
2018-01-26T08:59:39.592Z,10.73
2018-01-26T09:02:07.126Z,8.27
2018-01-26T09:04:34.730Z,10.23
2018-01-26T09:07:02.269Z,7.87
2018-01-26T09:09:29.797Z,10.80
2018-01-26T09:11:57.333Z,13.80
2018-01-26T09:14:24.852Z,16.27
2018-01-26T09:16:52.389Z,13.03
2018-01-26T09:19:19.970Z,12.10
2018-01-26T09:21:48.285Z,14.07
2018-01-26T09:24:15.814Z,13.80
2018-01-26T09:26:43.330Z,8.83
2018-01-26T09:29:10.862Z,9.63
2018-01-26T09:31:38.368Z,7.80
2018-01-26T09:34:05.893Z,5.53
2018-01-26T09:36:33.410Z,11.67
2018-01-26T09:39:00.950Z,11.43
2018-01-26T09:41:28.468Z,9.30
2018-01-26T09:43:56.002Z,9.07
2018-01-26T09:46:23.577Z,11.73
2018-01-26T09:48:51.114Z,7.00
2018-01-26T09:51:19.415Z,7.27
2018-01-26T09:53:46.978Z,6.93
2018-01-26T09:56:14.490Z,5.03
2018-01-26T09:58:43.514Z,6.37
2018-01-26T10:01:11.100Z,5.77
2018-01-26T10:03:38.658Z,4.10
2018-01-26T10:06:06.189Z,7.63
2018-01-26T10:08:34.465Z,6.07
2018-01-26T10:11:02.757Z,6.57
2018-01-26T10:13:30.269Z,6.13
2018-01-26T10:15:57.806Z,6.10
2018-01-26T10:18:25.319Z,7.43
2018-01-26T10:20:53.623Z,5.20
2018-01-26T10:23:21.139Z,4.10
2018-01-26T10:25:48.679Z,3.80
2018-01-26T10:28:16.221Z,3.63
2018-01-26T10:30:43.758Z,5.50
2018-01-26T10:33:12.037Z,3.93
2018-01-26T10:35:40.441Z,3.50
2018-01-26T10:38:07.950Z,2.87
2018-01-26T10:40:35.564Z,2.87
2018-01-26T10:43:03.069Z,5.00
2018-01-26T10:45:30.613Z,2.60
2018-01-26T10:47:58.130Z,2.87
2018-01-26T10:50:25.646Z,3.87
2018-01-26T10:52:53.177Z,2.07
2018-01-26T10:55:20.693Z,3.30
2018-01-26T10:57:49.010Z,4.50
2018-01-26T11:00:16.525Z,3.67
2018-01-26T11:02:44.821Z,2.90
2018-01-26T11:05:13.103Z,2.80
2018-01-26T11:07:40.637Z,2.30
2018-01-26T11:10:08.910Z,3.43
2018-01-26T11:12:36.437Z,2.30
2018-01-26T11:15:03.948Z,2.60
2018-01-26T11:17:32.241Z,2.83
2018-01-26T11:19:59.754Z,2.57
2018-01-26T11:22:27.268Z,4.13
2018-01-26T11:24:54.797Z,2.10
2018-01-26T11:27:23.075Z,1.10
2018-01-26T11:29:51.417Z,2.67
2018-01-26T11:32:18.962Z,2.03
2018-01-26T11:34:46.494Z,2.43
2018-01-26T11:37:14.774Z,2.80
2018-01-26T11:39:43.073Z,1.30
2018-01-26T11:42:10.584Z,1.77
2018-01-26T11:44:38.115Z,1.53
2018-01-26T11:47:05.622Z,1.50
2018-01-26T11:49:33.922Z,0.93
2018-01-26T11:52:01.435Z,1.40
2018-01-26T11:54:28.977Z,1.00
2018-01-26T11:56:56.492Z,0.77
2018-01-26T11:59:24.770Z,1.10
2018-01-26T12:01:53.073Z,1.60
2018-01-26T12:04:20.629Z,1.43
2018-01-26T12:06:48.158Z,1.00
2018-01-26T12:09:16.438Z,1.40
2018-01-26T12:11:44.745Z,1.27
2018-01-26T12:14:12.254Z,0.60
2018-01-26T12:16:39.790Z,1.40
2018-01-26T12:19:07.326Z,1.30
2018-01-26T12:21:34.900Z,1.40
2018-01-26T12:24:02.920Z,1.10
2018-01-26T12:26:30.886Z,1.10
2018-01-26T12:28:58.848Z,1.43
2018-01-26T12:31:26.821Z,1.70
2018-01-26T12:33:54.900Z,2.80
2018-01-26T12:36:23.364Z,1.33
2018-01-26T12:38:50.959Z,3.13
2018-01-26T12:41:18.549Z,4.63
2018-01-26T12:43:46.172Z,11.13
2018-01-26T12:46:13.733Z,10.47
2018-01-26T12:48:41.308Z,7.57
2018-01-26T12:51:09.636Z,2.30
2018-01-26T12:53:37.226Z,1.33
2018-01-26T12:56:04.846Z,1.50
2018-01-26T12:58:32.453Z,1.60
2018-01-26T13:01:00.026Z,1.67
2018-01-26T13:03:28.388Z,3.00
2018-01-26T13:05:56.009Z,1.60
2018-01-26T13:08:23.546Z,3.20
2018-01-26T13:10:51.867Z,1.97
2018-01-26T13:13:19.444Z,2.07
2018-01-26T13:15:47.004Z,3.50
2018-01-26T13:18:14.546Z,1.30
2018-01-26T13:20:42.118Z,2.87
2018-01-26T13:23:09.681Z,1.20
2018-01-26T13:25:37.260Z,1.27
2018-01-26T13:28:04.817Z,1.57
2018-01-26T13:30:32.492Z,1.50
2018-01-26T13:33:00.048Z,2.00
2018-01-26T13:35:27.633Z,1.23
2018-01-26T13:37:55.964Z,2.43
2018-01-26T13:40:23.510Z,2.20
2018-01-26T13:42:51.282Z,1.07
2018-01-26T13:45:18.819Z,1.57
2018-01-26T13:47:46.397Z,1.43
2018-01-26T13:50:13.932Z,1.53
2018-01-26T13:52:42.218Z,2.90
2018-01-26T13:55:09.784Z,1.17
2018-01-26T13:57:37.296Z,1.90
2018-01-26T14:00:04.837Z,1.50
2018-01-26T14:02:32.348Z,1.30
2018-01-26T14:05:00.643Z,1.30
2018-01-26T14:07:28.217Z,1.00
2018-01-26T14:09:55.725Z,1.80
2018-01-26T14:12:23.269Z,2.50
2018-01-26T14:14:50.781Z,1.17
2018-01-26T14:17:19.073Z,1.00
2018-01-26T14:19:46.591Z,1.50
2018-01-26T14:22:14.122Z,1.43
2018-01-26T14:24:41.666Z,1.37
2018-01-26T14:27:09.197Z,1.40
2018-01-26T14:29:37.503Z,2.33
2018-01-26T14:32:05.034Z,3.07
2018-01-26T14:34:33.315Z,3.60
2018-01-26T14:37:01.716Z,4.43
2018-01-26T14:39:29.234Z,2.80
2018-01-26T14:41:56.775Z,9.10
2018-01-26T14:44:24.290Z,4.60
2018-01-26T14:46:51.818Z,4.03
2018-01-26T14:49:19.330Z,3.00
2018-01-26T14:51:46.881Z,7.63
2018-01-26T14:54:14.401Z,5.03
2018-01-26T14:56:42.706Z,3.20
2018-01-26T14:59:10.222Z,4.20
2018-01-26T15:01:37.765Z,4.03
2018-01-26T15:04:05.285Z,6.87
2018-01-26T15:06:32.794Z,4.53
2018-01-26T15:09:00.329Z,4.07
2018-01-26T15:11:27.844Z,5.00
2018-01-26T15:13:56.141Z,4.77
2018-01-26T15:16:23.658Z,6.17
2018-01-26T15:18:51.193Z,3.30
2018-01-26T15:21:18.714Z,3.47
2018-01-26T15:23:47.008Z,3.57
2018-01-26T15:26:14.524Z,5.03
2018-01-26T15:28:42.057Z,3.47
2018-01-26T15:31:09.568Z,5.10
2018-01-26T15:33:37.878Z,4.93
2018-01-26T15:36:05.405Z,2.60
2018-01-26T15:38:33.689Z,2.63
2018-01-26T15:41:01.990Z,7.37
2018-01-26T15:43:29.501Z,3.03
2018-01-26T15:45:57.529Z,5.40
2018-01-26T15:48:25.556Z,5.60
2018-01-26T15:50:53.145Z,4.17
2018-01-26T15:53:20.674Z,4.93
2018-01-26T15:55:48.552Z,7.00
2018-01-26T15:58:16.111Z,5.00
2018-01-26T16:00:43.702Z,4.13
2018-01-26T16:03:11.257Z,4.73
2018-01-26T16:05:38.828Z,4.07
2018-01-26T16:08:06.393Z,4.97
2018-01-26T16:10:33.961Z,4.50
2018-01-26T16:13:01.540Z,5.57
2018-01-26T16:15:29.107Z,4.13
2018-01-26T16:17:56.682Z,5.33
2018-01-26T16:20:24.226Z,5.73
2018-01-26T16:22:51.800Z,6.80
2018-01-26T16:25:19.361Z,8.20
2018-01-26T16:27:46.894Z,8.00
2018-01-26T16:30:14.463Z,7.50
2018-01-26T16:32:42.050Z,5.60
2018-01-26T16:35:10.440Z,9.13
2018-01-26T16:37:38.028Z,6.93
2018-01-26T16:40:06.385Z,5.83
2018-01-26T16:42:34.053Z,9.33
2018-01-26T16:45:02.333Z,7.60
2018-01-26T16:47:30.680Z,8.63
2018-01-26T16:49:58.200Z,8.43
2018-01-26T16:52:25.773Z,6.80
2018-01-26T16:54:53.365Z,10.33
2018-01-26T16:57:20.932Z,10.90
2018-01-26T16:59:48.517Z,7.47
2018-01-26T17:02:16.840Z,8.27
2018-01-26T17:04:44.853Z,9.17
2018-01-26T17:07:12.826Z,11.00
2018-01-26T17:09:41.612Z,9.00
2018-01-26T17:12:09.578Z,8.40
2018-01-26T17:14:37.164Z,6.90
2018-01-26T17:17:05.444Z,5.67
2018-01-26T17:19:33.778Z,5.43
2018-01-26T17:22:01.345Z,7.33
2018-01-26T17:24:28.887Z,10.53
2018-01-26T17:26:56.402Z,10.50
2018-01-26T17:29:24.686Z,14.23
2018-01-26T17:31:52.236Z,14.10
2018-01-26T17:34:20.518Z,17.13
2018-01-26T17:36:48.876Z,16.63
2018-01-26T17:39:16.401Z,18.30
2018-01-26T17:41:43.938Z,16.60
2018-01-26T17:44:11.457Z,27.43
2018-01-26T17:46:39.048Z,16.10
2018-01-26T17:49:07.380Z,21.17
2018-01-26T17:51:34.922Z,14.17
2018-01-26T17:54:02.440Z,14.60
2018-01-26T17:56:30.747Z,16.37
2018-01-26T17:58:58.270Z,14.33
2018-01-26T18:01:26.745Z,11.17
2018-01-26T18:03:54.266Z,8.87
2018-01-26T18:06:21.824Z,8.93
2018-01-26T18:08:49.409Z,8.93
2018-01-26T18:11:16.924Z,11.37
2018-01-26T18:13:44.509Z,15.70
2018-01-26T18:16:12.081Z,15.17
2018-01-26T18:18:39.764Z,12.50
2018-01-26T18:21:07.277Z,9.30
2018-01-26T18:23:34.808Z,10.37
2018-01-26T18:26:03.141Z,7.00
2018-01-26T18:28:30.828Z,8.40
2018-01-26T18:30:58.345Z,11.00
2018-01-26T18:33:25.896Z,7.60
2018-01-26T18:35:53.466Z,10.20
2018-01-26T18:38:21.054Z,8.10
2018-01-26T18:40:48.570Z,8.90
2018-01-26T18:43:16.152Z,11.40
2018-01-26T18:45:43.695Z,7.67
2018-01-26T18:48:11.292Z,11.77
2018-01-26T18:50:38.811Z,9.07
2018-01-26T18:53:06.414Z,7.80
2018-01-26T18:55:33.986Z,7.30
2018-01-26T18:58:01.569Z,6.80
2018-01-26T19:00:29.129Z,7.33
2018-01-26T19:02:56.661Z,6.53
2018-01-26T19:05:24.172Z,7.17
2018-01-26T19:07:51.705Z,6.97
2018-01-26T19:10:19.977Z,8.40
2018-01-26T19:12:47.648Z,7.93
2018-01-26T19:15:16.028Z,7.37
2018-01-26T19:17:43.561Z,9.73
2018-01-26T19:20:11.148Z,4.50
2018-01-26T19:22:38.717Z,9.20
2018-01-26T19:25:06.372Z,7.20
2018-01-26T19:27:33.938Z,9.37
2018-01-26T19:30:01.471Z,10.20
2018-01-26T19:32:29.051Z,11.73
2018-01-26T19:34:56.631Z,8.93
2018-01-26T19:37:24.925Z,10.37
2018-01-26T19:39:52.519Z,10.20
2018-01-26T19:42:20.038Z,7.50
2018-01-26T19:44:48.513Z,12.90
2018-01-26T19:47:16.076Z,9.73
2018-01-26T19:49:43.900Z,15.07
2018-01-26T19:52:12.492Z,11.30
2018-01-26T19:54:40.077Z,10.53
2018-01-26T19:57:07.645Z,10.87
2018-01-26T19:59:35.233Z,11.00
2018-01-26T20:02:03.574Z,8.20
2018-01-26T20:04:36.954Z,9.03
2018-01-26T20:07:32.869Z,10.00
2018-01-26T20:10:00.457Z,17.87
2018-01-26T20:12:28.024Z,20.37
2018-01-26T20:14:55.617Z,19.37
2018-01-26T20:17:23.175Z,15.00
2018-01-26T20:19:50.710Z,17.10
2018-01-26T20:22:18.278Z,16.80
2018-01-26T20:24:45.875Z,15.60
2018-01-26T20:27:14.149Z,11.70
2018-01-26T20:29:42.501Z,11.07
2018-01-26T20:32:10.069Z,9.27
2018-01-26T20:34:37.652Z,8.70
2018-01-26T20:37:06.001Z,8.20
2018-01-26T20:39:33.566Z,9.17
2018-01-26T20:42:01.154Z,8.17
2018-01-26T20:44:28.764Z,7.00
2018-01-26T20:46:56.298Z,7.97
2018-01-26T20:49:24.582Z,10.27
2018-01-26T20:51:52.178Z,11.70
2018-01-26T20:54:19.746Z,9.30
2018-01-26T20:56:47.340Z,9.17
2018-01-26T20:59:14.909Z,9.67
2018-01-26T21:01:42.442Z,8.27
2018-01-26T21:04:09.959Z,8.37
2018-01-26T21:06:37.545Z,6.07
2018-01-26T21:09:05.114Z,5.97
2018-01-26T21:11:32.700Z,6.67
2018-01-26T21:14:01.074Z,12.60
2018-01-26T21:16:28.654Z,8.67
2018-01-26T21:18:56.223Z,11.10
2018-01-26T21:21:23.818Z,9.33
2018-01-26T21:23:51.397Z,13.03
2018-01-26T21:26:18.918Z,16.07
2018-01-26T21:28:47.273Z,13.47
2018-01-26T21:31:14.850Z,11.40
2018-01-26T21:33:43.154Z,10.90
2018-01-26T21:36:10.665Z,9.07
2018-01-26T21:38:38.344Z,9.30
2018-01-26T21:41:05.909Z,9.80
2018-01-26T21:43:33.493Z,9.90
2018-01-26T21:46:01.132Z,10.13
2018-01-26T21:48:28.797Z,9.97
2018-01-26T21:50:57.137Z,10.73
2018-01-26T21:53:24.670Z,13.67
2018-01-26T21:55:52.280Z,12.73
2018-01-26T21:58:19.865Z,9.37
2018-01-26T22:00:48.199Z,10.07
2018-01-26T22:03:15.790Z,8.50
2018-01-26T22:05:44.120Z,8.67
2018-01-26T22:08:11.685Z,6.57
2018-01-26T22:10:39.265Z,7.60
2018-01-26T22:13:06.828Z,7.30
2018-01-26T22:15:34.358Z,8.73
2018-01-26T22:18:01.872Z,14.90
2018-01-26T22:20:29.464Z,16.83
2018-01-26T22:22:57.797Z,10.20
2018-01-26T22:25:25.338Z,16.60
2018-01-26T22:27:52.850Z,12.10
2018-01-26T22:30:21.201Z,11.43
2018-01-26T22:32:48.770Z,8.80
2018-01-26T22:35:16.301Z,10.40
2018-01-26T22:37:43.849Z,10.30
2018-01-26T22:40:11.381Z,9.97
2018-01-26T22:42:39.665Z,10.67
2018-01-26T22:45:07.248Z,8.37
2018-01-26T22:47:34.856Z,12.70
2018-01-26T22:50:02.447Z,13.00
2018-01-26T22:52:29.969Z,12.30
2018-01-26T22:54:57.542Z,13.73
2018-01-26T22:57:25.074Z,13.60
2018-01-26T22:59:52.594Z,14.67
2018-01-26T23:02:20.174Z,16.20
2018-01-26T23:04:47.738Z,10.97
2018-01-26T23:07:15.328Z,15.03
2018-01-26T23:09:42.897Z,14.90
2018-01-26T23:12:10.430Z,15.37
2018-01-26T23:14:37.983Z,13.40
2018-01-26T23:17:05.567Z,11.53
2018-01-26T23:19:33.105Z,9.50
2018-01-26T23:22:00.647Z,11.07
2018-01-26T23:24:28.226Z,9.47
2018-01-26T23:26:55.785Z,10.33
2018-01-26T23:29:23.363Z,15.93
2018-01-26T23:31:50.906Z,14.07
2018-01-26T23:34:18.512Z,13.33
2018-01-26T23:36:46.033Z,9.80
2018-01-26T23:39:13.574Z,20.03
2018-01-26T23:41:41.126Z,15.67
2018-01-26T23:44:08.664Z,18.93
2018-01-26T23:46:36.947Z,18.33
2018-01-26T23:49:05.308Z,14.03
2018-01-26T23:51:32.826Z,12.97
2018-01-26T23:54:00.399Z,10.70
2018-01-26T23:56:27.914Z,10.20
2018-01-26T23:58:56.217Z,12.73
